Gas Shuriken — V7QG7 — position and weather

sailwx.info

Track history (hours):
 
Tides and Currents Weather Stations Pressure Air Temp Water Temp Dewpoint Dewpoint Depression Visibility Wind Speed Wind Dir Waves Ship Positions

Gas Shuriken

Last reported at 2018-Jun-23 15:58 UTC. Time now 2018-Jun-24 13:00 UTC.
Position S 34°12' E 151°09'.

Length 100 m; draft 6.1 m.

MMSI: 538003359.

Date/timePositionNaut miles runAvg speedWind from/ knotsBaromVisibWave heightAir tempDewpointWater temp
2018-Jun-23 15:58S 34°12' E 151°09'511.3
2018-Jun-23 15:30S 34°09' E 151°14'611.3
2018-Jun-23 15:00S 34°05' E 151°19'611.7
2018-Jun-23 14:30S 33°60' E 151°22'611.4
2018-Jun-23 14:00S 33°55' E 151°25'611.3
2018-Jun-23 13:30S 33°49' E 151°28'611.7
2018-Jun-23 13:00S 33°44' E 151°31'611.5
2018-Jun-23 12:30S 33°39' E 151°35'4011.9
2018-Jun-23 09:08S 33°07' E 152°04'111.4
2018-Jun-23 09:00S 33°06' E 152°05'611.4
2018-Jun-23 08:30S 33°01' E 152°09'611.2
2018-Jun-23 08:00S 32°57' E 152°13'611.3
2018-Jun-23 07:30S 32°52' E 152°17'611.4
2018-Jun-23 07:00S 32°48' E 152°21'611.5
2018-Jun-23 06:30S 32°44' E 152°26'611.5
2018-Jun-23 06:00S 32°39' E 152°29'611.5
2018-Jun-23 05:29S 32°34' E 152°33'711.4
2018-Jun-23 04:53S 32°29' E 152°38'2111.3
2018-Jun-23 02:59S 32°09' E 152°48'26410.7
2018-Jun-22 02:27S 27°49' E 153°42'4 9.8
2018-Jun-22 02:00S 27°45' E 153°42'3710.4
2018-Jun-21 22:25S 27°08' E 153°38'4 9.8
2018-Jun-21 21:59S 27°04' E 153°38'24 9.1
2018-Jun-21 19:22S 26°47' E 153°18'8 6.2
2018-Jun-21 18:02S 26°49' E 153°09'010.8
2018-Jun-21 18:00S 26°50' E 153°09'611.1
2018-Jun-21 17:30S 26°55' E 153°11'611.3
2018-Jun-21 17:00S 26°60' E 153°14'510.4
2018-Jun-21 16:30S 27°04' E 153°18'510.4
2018-Jun-21 15:58S 27°09' E 153°21'611.1
2018-Jun-21 15:28S 27°13' E 153°18'4 6.7
2018-Jun-21 14:54S 27°17' E 153°17'0 0.0
2018-Jun-21 02:35S 27°17' E 153°17'0 0.1
2018-Jun-21 02:29S 27°17' E 153°17'0 0.9
2018-Jun-21 02:01S 27°17' E 153°17'4 8.2
2018-Jun-21 01:31S 27°13' E 153°18'611.1
2018-Jun-21 01:00S 27°07' E 153°20'611.5
2018-Jun-21 00:31S 27°03' E 153°17'611.6
2018-Jun-21 00:00S 26°58' E 153°13'34110.5
2018-Jun-19 15:36S 32°37' E 152°31'112.7
2018-Jun-19 15:30S 32°38' E 152°30'612.6
2018-Jun-19 15:00S 32°43' E 152°26'612.5
2018-Jun-19 14:30S 32°48' E 152°21'612.3
2018-Jun-19 14:00S 32°53' E 152°17'612.2
2018-Jun-19 13:30S 32°58' E 152°12'612.2
2018-Jun-19 13:00S 33°02' E 152°07'611.8
2018-Jun-19 12:30S 33°06' E 152°02'3711.7
2018-Jun-19 09:23S 33°36' E 151°37'512.1
2018-Jun-19 09:00S 33°41' E 151°35'612.0
2018-Jun-19 08:30S 33°46' E 151°33'611.9
2018-Jun-19 08:00S 33°52' E 151°31'611.6
2018-Jun-19 07:31S 33°58' E 151°29'611.6
2018-Jun-19 07:00S 34°03' E 151°27'42011.5
2018-Jun-17 18:24S 40°04' E 146°57'512.9
2018-Jun-17 18:00S 40°09' E 146°55'612.8
2018-Jun-17 17:30S 40°15' E 146°51'612.7
2018-Jun-17 17:00S 40°21' E 146°48'612.7
2018-Jun-17 16:30S 40°27' E 146°45'612.6
2018-Jun-17 16:00S 40°33' E 146°42'612.5
2018-Jun-17 15:30S 40°39' E 146°39'612.5
2018-Jun-17 15:00S 40°44' E 146°36'612.6
2018-Jun-17 14:30S 40°50' E 146°33'612.7
2018-Jun-17 14:00S 40°56' E 146°30'612.8
2018-Jun-17 13:30S 41°02' E 146°26'612.2
2018-Jun-17 13:00S 41°08' E 146°24'2 0.2
2018-Jun-17 02:39S 41°09' E 146°23'1 8.4
2018-Jun-17 02:30S 41°08' E 146°23'2 3.4
2018-Jun-17 02:00S 41°07' E 146°23'0 0.2
2018-Jun-17 01:30S 41°06' E 146°24'0 0.1
2018-Jun-17 00:45S 41°06' E 146°24'0 0.0
2018-Jun-17 00:30S 41°06' E 146°24'0 0.0
2018-Jun-16 23:57S 41°06' E 146°24'0 0.0
2018-Jun-16 23:09S 41°06' E 146°24'0 0.2
2018-Jun-16 22:57S 41°06' E 146°24'0 0.0
2018-Jun-16 22:27S 41°06' E 146°24'0 0.1
2018-Jun-16 21:57S 41°06' E 146°24'0 0.1
2018-Jun-16 21:27S 41°06' E 146°24'0 0.0
2018-Jun-16 20:57S 41°07' E 146°24'0 0.0
2018-Jun-16 20:27S 41°07' E 146°24'0 0.0
2018-Jun-16 19:57S 41°07' E 146°24'0 0.0
2018-Jun-16 19:27S 41°07' E 146°24'0 0.0
2018-Jun-16 18:57S 41°07' E 146°24'0 0.2
2018-Jun-16 18:29S 41°07' E 146°24'3 6.0
2018-Jun-16 18:00S 41°09' E 146°23'1 1.0
2018-Jun-16 17:07S 41°09' E 146°23'1 9.6
2018-Jun-16 17:00S 41°08' E 146°24'2 3.6
2018-Jun-16 16:30S 41°06' E 146°25'2 3.7
2018-Jun-16 16:00S 41°05' E 146°27'611.4
2018-Jun-16 15:30S 41°02' E 146°34'611.4
2018-Jun-16 15:01S 40°60' E 146°40'4 8.7
2018-Jun-16 14:31S 40°57' E 146°45'2 4.5
2018-Jun-16 14:00S 40°56' E 146°48'3 5.4
2018-Jun-16 13:31S 40°58' E 146°45'510.1
2018-Jun-16 13:01S 40°55' E 146°50'5 9.9
2018-Jun-16 12:30S 40°53' E 146°56'5 9.4
2018-Jun-16 12:00S 40°50' E 147°01'5 9.4
2018-Jun-16 11:31S 40°48' E 147°07'5 9.0
2018-Jun-16 11:00S 40°46' E 147°12'4 8.8
2018-Jun-16 10:31S 40°43' E 147°17'4 8.2
2018-Jun-16 10:00S 40°41' E 147°22'4 7.8
2018-Jun-16 09:30S 40°40' E 147°26'4 7.0
2018-Jun-16 09:00S 40°40' E 147°31'4 7.1
2018-Jun-16 08:30S 40°39' E 147°36'3 6.6
2018-Jun-16 08:00S 40°39' E 147°40'3 6.1
2018-Jun-16 07:30S 40°39' E 147°44'3 6.1
2018-Jun-16 07:00S 40°39' E 147°48'3 6.1
2018-Jun-16 06:31S 40°38' E 147°52'3 5.7
2018-Jun-16 06:01S 40°38' E 147°56'3 5.2
2018-Jun-16 05:30S 40°38' E 147°59'3 5.2
2018-Jun-16 05:00S 40°39' E 148°02'3 5.1
2018-Jun-16 04:29S 40°39' E 148°06'4 4.1
2018-Jun-16 03:25S 40°40' E 148°11'2 4.5
2018-Jun-16 02:52S 40°41' E 148°15'151 8.8
2018-Jun-15 09:41S 43°08' E 147°31'2 0.1
2018-Jun-14 15:16S 43°08' E 147°28'0 1.4
2018-Jun-14 14:58S 43°07' E 147°28'1 1.3
2018-Jun-14 14:26S 43°07' E 147°28'1 3.4
2018-Jun-14 14:00S 43°08' E 147°29'610.3
2018-Jun-14 13:27S 43°11' E 147°35'2 2.6
2018-Jun-14 12:36S 43°13' E 147°37'1 8.5
2018-Jun-14 12:30S 43°13' E 147°38'  
Track history (hours):
 
Tides and Currents Weather Stations Pressure Air Temp Water Temp Dewpoint Dewpoint Depression Visibility Wind Speed Wind Dir Waves Ship Positions

Gas Shuriken

Last reported at 2018-Jun-23 15:58 UTC. Time now 2018-Jun-24 13:00 UTC.
Position S 34°12' E 151°09'.

Length 100 m; draft 6.1 m.

MMSI: 538003359.

Date/timePositionNaut miles runAvg speedWind from/ knotsBaromVisibWave heightAir tempDewpointWater temp
2018-Jun-23 15:58S 34°12' E 151°09'511.3
2018-Jun-23 15:30S 34°09' E 151°14'611.3
2018-Jun-23 15:00S 34°05' E 151°19'611.7
2018-Jun-23 14:30S 33°60' E 151°22'611.4
2018-Jun-23 14:00S 33°55' E 151°25'611.3
2018-Jun-23 13:30S 33°49' E 151°28'611.7
2018-Jun-23 13:00S 33°44' E 151°31'611.5
2018-Jun-23 12:30S 33°39' E 151°35'4011.9
2018-Jun-23 09:08S 33°07' E 152°04'111.4
2018-Jun-23 09:00S 33°06' E 152°05'611.4
2018-Jun-23 08:30S 33°01' E 152°09'611.2
2018-Jun-23 08:00S 32°57' E 152°13'611.3
2018-Jun-23 07:30S 32°52' E 152°17'611.4
2018-Jun-23 07:00S 32°48' E 152°21'611.5
2018-Jun-23 06:30S 32°44' E 152°26'611.5
2018-Jun-23 06:00S 32°39' E 152°29'611.5
2018-Jun-23 05:29S 32°34' E 152°33'711.4
2018-Jun-23 04:53S 32°29' E 152°38'2111.3
2018-Jun-23 02:59S 32°09' E 152°48'26410.7
2018-Jun-22 02:27S 27°49' E 153°42'4 9.8
2018-Jun-22 02:00S 27°45' E 153°42'3710.4
2018-Jun-21 22:25S 27°08' E 153°38'4 9.8
2018-Jun-21 21:59S 27°04' E 153°38'24 9.1
2018-Jun-21 19:22S 26°47' E 153°18'8 6.2
2018-Jun-21 18:02S 26°49' E 153°09'010.8
2018-Jun-21 18:00S 26°50' E 153°09'611.1
2018-Jun-21 17:30S 26°55' E 153°11'611.3
2018-Jun-21 17:00S 26°60' E 153°14'510.4
2018-Jun-21 16:30S 27°04' E 153°18'510.4
2018-Jun-21 15:58S 27°09' E 153°21'611.1
2018-Jun-21 15:28S 27°13' E 153°18'4 6.7
2018-Jun-21 14:54S 27°17' E 153°17'0 0.0
2018-Jun-21 02:35S 27°17' E 153°17'0 0.1
2018-Jun-21 02:29S 27°17' E 153°17'0 0.9
2018-Jun-21 02:01S 27°17' E 153°17'4 8.2
2018-Jun-21 01:31S 27°13' E 153°18'611.1
2018-Jun-21 01:00S 27°07' E 153°20'611.5
2018-Jun-21 00:31S 27°03' E 153°17'611.6
2018-Jun-21 00:00S 26°58' E 153°13'34110.5
2018-Jun-19 15:36S 32°37' E 152°31'112.7
2018-Jun-19 15:30S 32°38' E 152°30'612.6
2018-Jun-19 15:00S 32°43' E 152°26'612.5
2018-Jun-19 14:30S 32°48' E 152°21'612.3
2018-Jun-19 14:00S 32°53' E 152°17'612.2
2018-Jun-19 13:30S 32°58' E 152°12'612.2
2018-Jun-19 13:00S 33°02' E 152°07'611.8
2018-Jun-19 12:30S 33°06' E 152°02'3711.7
2018-Jun-19 09:23S 33°36' E 151°37'512.1
2018-Jun-19 09:00S 33°41' E 151°35'612.0
2018-Jun-19 08:30S 33°46' E 151°33'611.9
2018-Jun-19 08:00S 33°52' E 151°31'611.6
2018-Jun-19 07:31S 33°58' E 151°29'611.6
2018-Jun-19 07:00S 34°03' E 151°27'42011.5
2018-Jun-17 18:24S 40°04' E 146°57'512.9
2018-Jun-17 18:00S 40°09' E 146°55'612.8
2018-Jun-17 17:30S 40°15' E 146°51'612.7
2018-Jun-17 17:00S 40°21' E 146°48'612.7
2018-Jun-17 16:30S 40°27' E 146°45'612.6
2018-Jun-17 16:00S 40°33' E 146°42'612.5
2018-Jun-17 15:30S 40°39' E 146°39'612.5
2018-Jun-17 15:00S 40°44' E 146°36'612.6
2018-Jun-17 14:30S 40°50' E 146°33'612.7
2018-Jun-17 14:00S 40°56' E 146°30'612.8
2018-Jun-17 13:30S 41°02' E 146°26'612.2
2018-Jun-17 13:00S 41°08' E 146°24'2 0.2
2018-Jun-17 02:39S 41°09' E 146°23'1 8.4
2018-Jun-17 02:30S 41°08' E 146°23'2 3.4
2018-Jun-17 02:00S 41°07' E 146°23'0 0.2
2018-Jun-17 01:30S 41°06' E 146°24'0 0.1
2018-Jun-17 00:45S 41°06' E 146°24'0 0.0
2018-Jun-17 00:30S 41°06' E 146°24'0 0.0
2018-Jun-16 23:57S 41°06' E 146°24'0 0.0
2018-Jun-16 23:09S 41°06' E 146°24'0 0.2
2018-Jun-16 22:57S 41°06' E 146°24'0 0.0
2018-Jun-16 22:27S 41°06' E 146°24'0 0.1
2018-Jun-16 21:57S 41°06' E 146°24'0 0.1
2018-Jun-16 21:27S 41°06' E 146°24'0 0.0
2018-Jun-16 20:57S 41°07' E 146°24'0 0.0
2018-Jun-16 20:27S 41°07' E 146°24'0 0.0
2018-Jun-16 19:57S 41°07' E 146°24'0 0.0
2018-Jun-16 19:27S 41°07' E 146°24'0 0.0
2018-Jun-16 18:57S 41°07' E 146°24'0 0.2
2018-Jun-16 18:29S 41°07' E 146°24'3 6.0
2018-Jun-16 18:00S 41°09' E 146°23'1 1.0
2018-Jun-16 17:07S 41°09' E 146°23'1 9.6
2018-Jun-16 17:00S 41°08' E 146°24'2 3.6
2018-Jun-16 16:30S 41°06' E 146°25'2 3.7
2018-Jun-16 16:00S 41°05' E 146°27'611.4
2018-Jun-16 15:30S 41°02' E 146°34'611.4
2018-Jun-16 15:01S 40°60' E 146°40'4 8.7
2018-Jun-16 14:31S 40°57' E 146°45'2 4.5
2018-Jun-16 14:00S 40°56' E 146°48'3 5.4
2018-Jun-16 13:31S 40°58' E 146°45'510.1
2018-Jun-16 13:01S 40°55' E 146°50'5 9.9
2018-Jun-16 12:30S 40°53' E 146°56'5 9.4
2018-Jun-16 12:00S 40°50' E 147°01'5 9.4
2018-Jun-16 11:31S 40°48' E 147°07'5 9.0
2018-Jun-16 11:00S 40°46' E 147°12'4 8.8
2018-Jun-16 10:31S 40°43' E 147°17'4 8.2
2018-Jun-16 10:00S 40°41' E 147°22'4 7.8
2018-Jun-16 09:30S 40°40' E 147°26'4 7.0
2018-Jun-16 09:00S 40°40' E 147°31'4 7.1
2018-Jun-16 08:30S 40°39' E 147°36'3 6.6
2018-Jun-16 08:00S 40°39' E 147°40'3 6.1
2018-Jun-16 07:30S 40°39' E 147°44'3 6.1
2018-Jun-16 07:00S 40°39' E 147°48'3 6.1
2018-Jun-16 06:31S 40°38' E 147°52'3 5.7
2018-Jun-16 06:01S 40°38' E 147°56'3 5.2
2018-Jun-16 05:30S 40°38' E 147°59'3 5.2
2018-Jun-16 05:00S 40°39' E 148°02'3 5.1
2018-Jun-16 04:29S 40°39' E 148°06'4 4.1
2018-Jun-16 03:25S 40°40' E 148°11'2 4.5
2018-Jun-16 02:52S 40°41' E 148°15'151 8.8
2018-Jun-15 09:41S 43°08' E 147°31'2 0.1
2018-Jun-14 15:16S 43°08' E 147°28'0 1.4
2018-Jun-14 14:58S 43°07' E 147°28'1 1.3
2018-Jun-14 14:26S 43°07' E 147°28'1 3.4
2018-Jun-14 14:00S 43°08' E 147°29'610.3
2018-Jun-14 13:27S 43°11' E 147°35'2 2.6
2018-Jun-14 12:36S 43°13' E 147°37'1 8.5
2018-Jun-14 12:30S 43°13' E 147°38'  

Dump ship's entire track history